KHON/HON METAR and TAF weather

Enter ICAO airport designator
Station Type Date Time Source
KHON METAR 2020/01/21 08:55 UTC NOAA

KHON 210855Z AUTO 15015G23KT 10SM CLR M17/M19 A3030 RMK AO2 SLP294 T11671194 57032 $


Station Type Date Time Source
KHON Decoded METAR 2020/01/21 08:55 UTC NOAA

HURON REGIONAL AIRPORT, SD, United States (KHON) 44-23N 098-14W 390M
Jan 21, 2020 - 03:55 AM EST / 2020.01.21 0855 UTC
Wind: from the SSE (150 degrees) at 17 MPH (15 KT) gusting to 26 MPH (23 KT):0
Visibility: 10 mile(s):0
Sky conditions: clear
Temperature: 1.9 F (-16.7 C)
Windchill: -18 F (-28 C):2
Dew Point: -2.9 F (-19.4 C)
Relative Humidity: 79%
Pressure (altimeter): 30.3 in. Hg (1026 hPa)
Pressure tendency: 0.09 inches (3.2 hPa) lower than three hours ago
ob: KHON 210855Z AUTO 15015G23KT 10SM CLR M17/M19 A3030 RMK AO2 SLP294 T11671194 57032
cycle: 9

Station Type Date Time Source
KHON TAF 2020/01/21 06:22 UTC NOAA

TAF KHON 210520Z 2106/2206 16013G21KT P6SM FEW250
FM211300 16017G26KT P6SM SCT250 WS012/21040KT
FM211700 17022G34KT P6SM BKN200 WS014/21047KT
FM212000 18022G35KT P6SM BKN200
FM220200 18017G30KT P6SM OVC100

Example: see airport list